sensor_id;sensor_type;location;lat;lon;timestamp;temperature;humidity
18880;DHT22;9572;52.378;13.404;2023-02-18T00:02:12;7.40;99.90
18880;DHT22;9572;52.378;13.404;2023-02-18T00:04:39;7.40;99.90
18880;DHT22;9572;52.378;13.404;2023-02-18T00:07:06;7.40;99.90
18880;DHT22;9572;52.378;13.404;2023-02-18T00:09:33;7.40;99.90
18880;DHT22;9572;52.378;13.404;2023-02-18T00:12:01;7.40;99.90
18880;DHT22;9572;52.378;13.404;2023-02-18T00:14:28;7.40;99.90
18880;DHT22;9572;52.378;13.404;2023-02-18T00:16:55;7.40;99.90
18880;DHT22;9572;52.378;13.404;2023-02-18T00:19:22;7.40;99.90
18880;DHT22;9572;52.378;13.404;2023-02-18T00:21:48;7.50;99.90
18880;DHT22;9572;52.378;13.404;2023-02-18T00:24:16;7.40;99.90
18880;DHT22;9572;52.378;13.404;2023-02-18T00:26:43;7.40;99.90
18880;DHT22;9572;52.378;13.404;2023-02-18T00:29:12;7.40;99.90
18880;DHT22;9572;52.378;13.404;2023-02-18T00:31:38;7.40;99.90
18880;DHT22;9572;52.378;13.404;2023-02-18T00:34:06;7.40;99.90
18880;DHT22;9572;52.378;13.404;2023-02-18T00:36:33;7.40;99.90
18880;DHT22;9572;52.378;13.404;2023-02-18T00:39:02;7.40;99.90
18880;DHT22;9572;52.378;13.404;2023-02-18T00:41:30;7.30;99.90
18880;DHT22;9572;52.378;13.404;2023-02-18T00:43:58;7.30;99.90
18880;DHT22;9572;52.378;13.404;2023-02-18T00:46:27;7.30;99.90
18880;DHT22;9572;52.378;13.404;2023-02-18T00:48:54;7.30;99.90
18880;DHT22;9572;52.378;13.404;2023-02-18T00:51:22;7.20;99.90
18880;DHT22;9572;52.378;13.404;2023-02-18T00:53:50;7.20;99.90
18880;DHT22;9572;52.378;13.404;2023-02-18T00:56:17;7.20;99.90
18880;DHT22;9572;52.378;13.404;2023-02-18T00:58:44;7.20;99.90
18880;DHT22;9572;52.378;13.404;2023-02-18T01:01:11;7.10;99.90
18880;DHT22;9572;52.378;13.404;2023-02-18T01:03:40;7.10;99.90
18880;DHT22;9572;52.378;13.404;2023-02-18T01:06:08;7.10;99.90
18880;DHT22;9572;52.378;13.404;2023-02-18T01:08:35;7.00;99.90
18880;DHT22;9572;52.378;13.404;2023-02-18T01:11:03;7.00;99.90
18880;DHT22;9572;52.378;13.404;2023-02-18T01:13:31;7.00;99.90
18880;DHT22;9572;52.378;13.404;2023-02-18T01:15:58;7.00;99.90
18880;DHT22;9572;52.378;13.404;2023-02-18T01:18:25;7.00;99.90
18880;DHT22;9572;52.378;13.404;2023-02-18T01:20:54;6.90;99.90
18880;DHT22;9572;52.378;13.404;2023-02-18T01:23:21;6.90;99.90
18880;DHT22;9572;52.378;13.404;2023-02-18T01:25:48;6.90;99.90
18880;DHT22;9572;52.378;13.404;2023-02-18T01:28:15;6.90;99.90
18880;DHT22;9572;52.378;13.404;2023-02-18T01:30:43;6.90;99.90
18880;DHT22;9572;52.378;13.404;2023-02-18T01:33:11;6.90;99.90
18880;DHT22;9572;52.378;13.404;2023-02-18T01:35:38;6.90;99.90
18880;DHT22;9572;52.378;13.404;2023-02-18T01:38:07;6.80;99.90
18880;DHT22;9572;52.378;13.404;2023-02-18T01:40:34;6.80;99.90
18880;DHT22;9572;52.378;13.404;2023-02-18T01:43:02;6.80;99.90
18880;DHT22;9572;52.378;13.404;2023-02-18T01:45:57;6.80;99.90
18880;DHT22;9572;52.378;13.404;2023-02-18T01:48:29;6.80;99.90
18880;DHT22;9572;52.378;13.404;2023-02-18T01:51:02;6.80;99.90
18880;DHT22;9572;52.378;13.404;2023-02-18T01:53:36;6.80;99.90
18880;DHT22;9572;52.378;13.404;2023-02-18T01:56:06;6.80;99.90
18880;DHT22;9572;52.378;13.404;2023-02-18T01:58:34;6.80;99.90
18880;DHT22;9572;52.378;13.404;2023-02-18T02:01:02;6.70;99.90
18880;DHT22;9572;52.378;13.404;2023-02-18T02:03:28;6.70;99.90
18880;DHT22;9572;52.378;13.404;2023-02-18T02:05:55;6.70;99.90
18880;DHT22;9572;52.378;13.404;2023-02-18T02:08:22;6.70;99.90
18880;DHT22;9572;52.378;13.404;2023-02-18T02:11:01;6.70;99.90
18880;DHT22;9572;52.378;13.404;2023-02-18T02:13:34;6.70;99.90
18880;DHT22;9572;52.378;13.404;2023-02-18T02:16:06;6.70;99.90
18880;DHT22;9572;52.378;13.404;2023-02-18T02:18:49;6.60;99.90
18880;DHT22;9572;52.378;13.404;2023-02-18T02:21:58;6.60;99.90
18880;DHT22;9572;52.378;13.404;2023-02-18T02:25:00;6.60;99.90
18880;DHT22;9572;52.378;13.404;2023-02-18T02:27:46;6.60;99.90
18880;DHT22;9572;52.378;13.404;2023-02-18T02:36:35;6.60;99.90
18880;DHT22;9572;52.378;13.404;2023-02-18T02:39:10;6.60;99.90
18880;DHT22;9572;52.378;13.404;2023-02-18T02:41:46;6.50;99.90
18880;DHT22;9572;52.378;13.404;2023-02-18T02:44:20;6.50;99.90
18880;DHT22;9572;52.378;13.404;2023-02-18T02:46:51;6.60;99.90
18880;DHT22;9572;52.378;13.404;2023-02-18T02:49:32;6.50;99.90
18880;DHT22;9572;52.378;13.404;2023-02-18T02:52:06;6.60;99.90
18880;DHT22;9572;52.378;13.404;2023-02-18T02:54:35;6.60;99.90
18880;DHT22;9572;52.378;13.404;2023-02-18T02:57:05;6.60;99.90
18880;DHT22;9572;52.378;13.404;2023-02-18T02:59:32;6.60;99.90
18880;DHT22;9572;52.378;13.404;2023-02-18T03:02:11;6.60;99.90
18880;DHT22;9572;52.378;13.404;2023-02-18T03:04:58;6.50;99.90
18880;DHT22;9572;52.378;13.404;2023-02-18T03:07:53;6.50;99.90
18880;DHT22;9572;52.378;13.404;2023-02-18T03:10:40;6.50;99.90
18880;DHT22;9572;52.378;13.404;2023-02-18T03:13:17;6.50;99.90
18880;DHT22;9572;52.378;13.404;2023-02-18T03:15:49;6.50;99.90
18880;DHT22;9572;52.378;13.404;2023-02-18T03:18:23;6.50;99.90
18880;DHT22;9572;52.378;13.404;2023-02-18T03:20:55;6.50;99.90
18880;DHT22;9572;52.378;13.404;2023-02-18T03:23:27;6.40;99.90
18880;DHT22;9572;52.378;13.404;2023-02-18T03:25:56;6.40;99.90
18880;DHT22;9572;52.378;13.404;2023-02-18T03:28:28;6.40;99.90
18880;DHT22;9572;52.378;13.404;2023-02-18T03:31:00;6.50;99.90
18880;DHT22;9572;52.378;13.404;2023-02-18T03:33:31;6.50;99.90
18880;DHT22;9572;52.378;13.404;2023-02-18T03:35:59;6.50;99.90
18880;DHT22;9572;52.378;13.404;2023-02-18T03:38:33;6.60;99.90
18880;DHT22;9572;52.378;13.404;2023-02-18T03:41:02;6.50;99.90
18880;DHT22;9572;52.378;13.404;2023-02-18T03:43:30;6.50;99.90
18880;DHT22;9572;52.378;13.404;2023-02-18T03:45:57;6.50;99.90
18880;DHT22;9572;52.378;13.404;2023-02-18T03:48:24;6.50;99.90
18880;DHT22;9572;52.378;13.404;2023-02-18T03:50:51;6.50;99.90
18880;DHT22;9572;52.378;13.404;2023-02-18T03:53:18;6.50;99.90
18880;DHT22;9572;52.378;13.404;2023-02-18T03:55:46;6.50;99.90
18880;DHT22;9572;52.378;13.404;2023-02-18T03:58:13;6.40;99.90
18880;DHT22;9572;52.378;13.404;2023-02-18T04:00:40;6.40;99.90
18880;DHT22;9572;52.378;13.404;2023-02-18T04:03:07;6.40;99.90
18880;DHT22;9572;52.378;13.404;2023-02-18T04:05:34;6.30;99.90
18880;DHT22;9572;52.378;13.404;2023-02-18T04:08:01;6.30;99.90
18880;DHT22;9572;52.378;13.404;2023-02-18T04:10:28;6.30;99.90
18880;DHT22;9572;52.378;13.404;2023-02-18T04:12:56;6.30;99.90
18880;DHT22;9572;52.378;13.404;2023-02-18T04:15:23;6.30;99.90
18880;DHT22;9572;52.378;13.404;2023-02-18T04:17:50;6.30;99.90
18880;DHT22;9572;52.378;13.404;2023-02-18T04:20:17;6.20;99.90
18880;DHT22;9572;52.378;13.404;2023-02-18T04:22:44;6.20;99.90
18880;DHT22;9572;52.378;13.404;2023-02-18T04:25:10;6.30;99.90
18880;DHT22;9572;52.378;13.404;2023-02-18T04:27:37;6.20;99.90
18880;DHT22;9572;52.378;13.404;2023-02-18T04:30:07;6.20;99.90
18880;DHT22;9572;52.378;13.404;2023-02-18T04:32:34;6.20;99.90
18880;DHT22;9572;52.378;13.404;2023-02-18T04:35:00;6.30;99.90
18880;DHT22;9572;52.378;13.404;2023-02-18T04:37:28;6.20;99.90
18880;DHT22;9572;52.378;13.404;2023-02-18T04:39:55;6.20;99.90
18880;DHT22;9572;52.378;13.404;2023-02-18T04:42:21;6.20;99.90
18880;DHT22;9572;52.378;13.404;2023-02-18T04:44:48;6.20;99.90
18880;DHT22;9572;52.378;13.404;2023-02-18T04:47:17;6.20;99.90
18880;DHT22;9572;52.378;13.404;2023-02-18T04:49:43;6.30;99.90
18880;DHT22;9572;52.378;13.404;2023-02-18T04:52:10;6.40;99.90
18880;DHT22;9572;52.378;13.404;2023-02-18T04:54:37;6.40;99.90
18880;DHT22;9572;52.378;13.404;2023-02-18T04:57:04;6.40;99.90
18880;DHT22;9572;52.378;13.404;2023-02-18T04:59:31;6.50;99.90
18880;DHT22;9572;52.378;13.404;2023-02-18T05:01:58;6.50;99.90
18880;DHT22;9572;52.378;13.404;2023-02-18T05:04:26;6.60;99.90
18880;DHT22;9572;52.378;13.404;2023-02-18T05:06:53;6.60;99.90
18880;DHT22;9572;52.378;13.404;2023-02-18T05:09:20;6.60;99.90
18880;DHT22;9572;52.378;13.404;2023-02-18T05:11:47;6.60;99.90
18880;DHT22;9572;52.378;13.404;2023-02-18T05:14:14;6.70;99.90
18880;DHT22;9572;52.378;13.404;2023-02-18T05:16:41;6.70;99.90
18880;DHT22;9572;52.378;13.404;2023-02-18T05:19:09;6.70;99.90
18880;DHT22;9572;52.378;13.404;2023-02-18T05:21:40;6.80;99.90
18880;DHT22;9572;52.378;13.404;2023-02-18T05:24:07;6.80;99.90
18880;DHT22;9572;52.378;13.404;2023-02-18T05:26:34;6.80;99.90
18880;DHT22;9572;52.378;13.404;2023-02-18T05:29:01;6.80;99.90
18880;DHT22;9572;52.378;13.404;2023-02-18T05:31:28;6.80;99.90
18880;DHT22;9572;52.378;13.404;2023-02-18T05:33:55;6.90;99.90
18880;DHT22;9572;52.378;13.404;2023-02-18T05:36:22;6.90;99.90
18880;DHT22;9572;52.378;13.404;2023-02-18T05:38:50;6.80;99.90
18880;DHT22;9572;52.378;13.404;2023-02-18T05:41:17;6.90;99.90
18880;DHT22;9572;52.378;13.404;2023-02-18T05:43:45;6.90;99.90
18880;DHT22;9572;52.378;13.404;2023-02-18T05:46:29;7.00;99.90
18880;DHT22;9572;52.378;13.404;2023-02-18T05:48:56;6.90;99.90
18880;DHT22;9572;52.378;13.404;2023-02-18T05:51:23;6.90;99.90
18880;DHT22;9572;52.378;13.404;2023-02-18T05:53:51;6.90;99.90
18880;DHT22;9572;52.378;13.404;2023-02-18T05:56:18;6.90;99.90
18880;DHT22;9572;52.378;13.404;2023-02-18T05:58:44;7.00;99.90
18880;DHT22;9572;52.378;13.404;2023-02-18T06:01:11;7.00;99.90
18880;DHT22;9572;52.378;13.404;2023-02-18T06:03:38;7.00;99.90
18880;DHT22;9572;52.378;13.404;2023-02-18T06:06:06;7.00;99.90
18880;DHT22;9572;52.378;13.404;2023-02-18T06:08:33;7.00;99.90
18880;DHT22;9572;52.378;13.404;2023-02-18T06:11:02;7.00;99.90
18880;DHT22;9572;52.378;13.404;2023-02-18T06:13:29;7.00;99.90
18880;DHT22;9572;52.378;13.404;2023-02-18T06:15:56;7.00;99.90
18880;DHT22;9572;52.378;13.404;2023-02-18T06:18:22;7.00;99.90
18880;DHT22;9572;52.378;13.404;2023-02-18T06:20:49;7.00;99.90
18880;DHT22;9572;52.378;13.404;2023-02-18T06:23:16;7.00;99.90
18880;DHT22;9572;52.378;13.404;2023-02-18T06:25:43;7.00;99.90
18880;DHT22;9572;52.378;13.404;2023-02-18T06:28:11;7.00;99.90
18880;DHT22;9572;52.378;13.404;2023-02-18T06:30:38;7.00;99.90
18880;DHT22;9572;52.378;13.404;2023-02-18T06:33:05;7.00;99.90
18880;DHT22;9572;52.378;13.404;2023-02-18T06:35:32;7.00;99.90
18880;DHT22;9572;52.378;13.404;2023-02-18T06:37:59;7.00;99.90
18880;DHT22;9572;52.378;13.404;2023-02-18T06:40:26;7.00;99.90
18880;DHT22;9572;52.378;13.404;2023-02-18T06:42:53;7.00;99.90
18880;DHT22;9572;52.378;13.404;2023-02-18T06:45:21;7.00;99.90
18880;DHT22;9572;52.378;13.404;2023-02-18T06:47:48;7.00;99.90
18880;DHT22;9572;52.378;13.404;2023-02-18T06:50:15;7.10;99.90
18880;DHT22;9572;52.378;13.404;2023-02-18T06:52:44;7.10;99.90
18880;DHT22;9572;52.378;13.404;2023-02-18T06:55:11;7.10;99.90
18880;DHT22;9572;52.378;13.404;2023-02-18T06:57:38;7.10;99.90
18880;DHT22;9572;52.378;13.404;2023-02-18T07:00:06;7.10;99.90
18880;DHT22;9572;52.378;13.404;2023-02-18T07:02:36;7.10;99.90
18880;DHT22;9572;52.378;13.404;2023-02-18T07:05:03;7.10;99.90
18880;DHT22;9572;52.378;13.404;2023-02-18T07:07:30;7.20;99.90
18880;DHT22;9572;52.378;13.404;2023-02-18T07:09:57;7.30;99.90
18880;DHT22;9572;52.378;13.404;2023-02-18T07:12:23;7.20;99.90
18880;DHT22;9572;52.378;13.404;2023-02-18T07:14:50;7.20;99.90
18880;DHT22;9572;52.378;13.404;2023-02-18T07:17:17;7.30;99.90
18880;DHT22;9572;52.378;13.404;2023-02-18T07:19:46;7.30;99.90
18880;DHT22;9572;52.378;13.404;2023-02-18T07:22:13;7.30;99.90
18880;DHT22;9572;52.378;13.404;2023-02-18T07:24:40;7.20;99.90
18880;DHT22;9572;52.378;13.404;2023-02-18T07:27:07;7.20;99.90
18880;DHT22;9572;52.378;13.404;2023-02-18T07:29:34;7.10;99.90
18880;DHT22;9572;52.378;13.404;2023-02-18T07:32:00;7.00;99.90
18880;DHT22;9572;52.378;13.404;2023-02-18T07:34:27;7.00;99.90
18880;DHT22;9572;52.378;13.404;2023-02-18T07:36:55;7.10;99.90
18880;DHT22;9572;52.378;13.404;2023-02-18T07:39:22;7.00;99.90
18880;DHT22;9572;52.378;13.404;2023-02-18T07:41:49;7.00;99.90
18880;DHT22;9572;52.378;13.404;2023-02-18T07:44:16;6.90;99.90
18880;DHT22;9572;52.378;13.404;2023-02-18T07:46:43;6.90;99.90
18880;DHT22;9572;52.378;13.404;2023-02-18T07:49:10;6.90;99.90
18880;DHT22;9572;52.378;13.404;2023-02-18T07:51:37;6.80;99.90
18880;DHT22;9572;52.378;13.404;2023-02-18T07:54:06;6.90;99.90
18880;DHT22;9572;52.378;13.404;2023-02-18T07:56:34;6.90;99.90
18880;DHT22;9572;52.378;13.404;2023-02-18T07:59:01;6.80;99.90
18880;DHT22;9572;52.378;13.404;2023-02-18T08:01:28;6.80;99.90
18880;DHT22;9572;52.378;13.404;2023-02-18T08:03:55;6.70;99.90
18880;DHT22;9572;52.378;13.404;2023-02-18T08:06:25;6.70;99.90
18880;DHT22;9572;52.378;13.404;2023-02-18T08:08:53;6.70;99.90
18880;DHT22;9572;52.378;13.404;2023-02-18T08:11:21;6.60;99.90
18880;DHT22;9572;52.378;13.404;2023-02-18T08:13:48;6.60;99.90
18880;DHT22;9572;52.378;13.404;2023-02-18T08:16:16;6.60;99.90
18880;DHT22;9572;52.378;13.404;2023-02-18T08:18:43;6.60;99.90
18880;DHT22;9572;52.378;13.404;2023-02-18T08:21:12;6.70;99.90
18880;DHT22;9572;52.378;13.404;2023-02-18T08:23:39;6.70;99.90
18880;DHT22;9572;52.378;13.404;2023-02-18T08:26:06;6.70;99.90
18880;DHT22;9572;52.378;13.404;2023-02-18T08:28:34;6.70;99.90
18880;DHT22;9572;52.378;13.404;2023-02-18T08:31:01;6.60;99.90
18880;DHT22;9572;52.378;13.404;2023-02-18T08:33:28;6.60;99.90
18880;DHT22;9572;52.378;13.404;2023-02-18T08:35:55;6.50;99.90
18880;DHT22;9572;52.378;13.404;2023-02-18T08:38:23;6.60;99.90
18880;DHT22;9572;52.378;13.404;2023-02-18T08:40:50;6.70;99.90
18880;DHT22;9572;52.378;13.404;2023-02-18T08:43:26;6.70;99.90
18880;DHT22;9572;52.378;13.404;2023-02-18T08:45:56;6.70;99.90
18880;DHT22;9572;52.378;13.404;2023-02-18T08:48:24;6.70;99.90
18880;DHT22;9572;52.378;13.404;2023-02-18T08:50:51;6.70;99.90
18880;DHT22;9572;52.378;13.404;2023-02-18T08:53:18;6.80;99.90
18880;DHT22;9572;52.378;13.404;2023-02-18T08:55:45;6.80;99.90
18880;DHT22;9572;52.378;13.404;2023-02-18T08:58:12;6.80;99.90
18880;DHT22;9572;52.378;13.404;2023-02-18T09:00:39;6.80;99.90
18880;DHT22;9572;52.378;13.404;2023-02-18T09:03:11;6.90;99.90
18880;DHT22;9572;52.378;13.404;2023-02-18T09:05:38;6.90;99.90
18880;DHT22;9572;52.378;13.404;2023-02-18T09:08:05;6.90;99.90
18880;DHT22;9572;52.378;13.404;2023-02-18T09:10:32;7.00;99.90
18880;DHT22;9572;52.378;13.404;2023-02-18T09:12:58;7.00;99.90
18880;DHT22;9572;52.378;13.404;2023-02-18T09:15:25;7.00;99.90
18880;DHT22;9572;52.378;13.404;2023-02-18T09:17:52;7.00;99.90
18880;DHT22;9572;52.378;13.404;2023-02-18T09:20:21;7.20;99.90
18880;DHT22;9572;52.378;13.404;2023-02-18T09:22:48;7.20;99.90
18880;DHT22;9572;52.378;13.404;2023-02-18T09:25:15;7.20;99.90
18880;DHT22;9572;52.378;13.404;2023-02-18T09:27:41;7.20;99.90
18880;DHT22;9572;52.378;13.404;2023-02-18T09:30:09;7.20;99.90
18880;DHT22;9572;52.378;13.404;2023-02-18T09:32:36;7.10;99.90
18880;DHT22;9572;52.378;13.404;2023-02-18T09:35:03;7.20;99.90
18880;DHT22;9572;52.378;13.404;2023-02-18T09:37:32;7.20;99.90
18880;DHT22;9572;52.378;13.404;2023-02-18T09:39:58;7.30;99.90
18880;DHT22;9572;52.378;13.404;2023-02-18T09:42:30;7.40;99.90
18880;DHT22;9572;52.378;13.404;2023-02-18T09:45:01;7.40;99.90
18880;DHT22;9572;52.378;13.404;2023-02-18T09:47:34;7.40;99.90
18880;DHT22;9572;52.378;13.404;2023-02-18T09:50:05;7.30;99.90
18880;DHT22;9572;52.378;13.404;2023-02-18T09:52:36;7.30;99.90
18880;DHT22;9572;52.378;13.404;2023-02-18T09:55:16;7.30;99.90
18880;DHT22;9572;52.378;13.404;2023-02-18T09:57:46;7.30;99.90
18880;DHT22;9572;52.378;13.404;2023-02-18T10:00:19;7.40;99.90
18880;DHT22;9572;52.378;13.404;2023-02-18T10:02:54;7.50;99.90
18880;DHT22;9572;52.378;13.404;2023-02-18T10:05:22;7.30;99.90
18880;DHT22;9572;52.378;13.404;2023-02-18T10:07:55;7.50;99.90
18880;DHT22;9572;52.378;13.404;2023-02-18T10:10:32;7.40;99.90
18880;DHT22;9572;52.378;13.404;2023-02-18T10:13:00;7.40;99.90
18880;DHT22;9572;52.378;13.404;2023-02-18T10:15:30;7.40;99.90
18880;DHT22;9572;52.378;13.404;2023-02-18T10:17:58;7.40;99.90
18880;DHT22;9572;52.378;13.404;2023-02-18T10:20:28;7.40;99.90
18880;DHT22;9572;52.378;13.404;2023-02-18T10:23:01;7.40;99.90
18880;DHT22;9572;52.378;13.404;2023-02-18T10:25:31;7.30;99.90
18880;DHT22;9572;52.378;13.404;2023-02-18T10:28:02;7.30;99.90
18880;DHT22;9572;52.378;13.404;2023-02-18T10:30:32;7.20;99.90
18880;DHT22;9572;52.378;13.404;2023-02-18T10:33:10;7.20;99.90
18880;DHT22;9572;52.378;13.404;2023-02-18T10:35:49;7.20;99.90
18880;DHT22;9572;52.378;13.404;2023-02-18T10:38:30;7.30;99.90
18880;DHT22;9572;52.378;13.404;2023-02-18T10:41:06;7.30;99.90
18880;DHT22;9572;52.378;13.404;2023-02-18T10:43:38;7.30;99.90
18880;DHT22;9572;52.378;13.404;2023-02-18T10:46:18;7.30;99.90
18880;DHT22;9572;52.378;13.404;2023-02-18T10:49:00;7.30;99.90
18880;DHT22;9572;52.378;13.404;2023-02-18T10:51:32;7.40;99.90
18880;DHT22;9572;52.378;13.404;2023-02-18T10:54:01;7.40;99.90
18880;DHT22;9572;52.378;13.404;2023-02-18T10:56:38;7.40;99.90
18880;DHT22;9572;52.378;13.404;2023-02-18T10:59:12;7.40;99.90
18880;DHT22;9572;52.378;13.404;2023-02-18T11:01:41;7.40;99.90
18880;DHT22;9572;52.378;13.404;2023-02-18T11:04:15;7.50;99.90
18880;DHT22;9572;52.378;13.404;2023-02-18T11:06:48;7.50;99.90
18880;DHT22;9572;52.378;13.404;2023-02-18T11:09:26;7.40;99.90
18880;DHT22;9572;52.378;13.404;2023-02-18T11:12:01;7.50;99.90
18880;DHT22;9572;52.378;13.404;2023-02-18T11:14:42;7.50;99.90
18880;DHT22;9572;52.378;13.404;2023-02-18T11:17:17;7.60;99.90
18880;DHT22;9572;52.378;13.404;2023-02-18T11:19:51;7.60;99.90
18880;DHT22;9572;52.378;13.404;2023-02-18T11:22:20;7.60;99.90
18880;DHT22;9572;52.378;13.404;2023-02-18T11:24:53;7.60;99.90
18880;DHT22;9572;52.378;13.404;2023-02-18T11:27:24;7.60;99.90
18880;DHT22;9572;52.378;13.404;2023-02-18T11:29:53;7.60;99.90
18880;DHT22;9572;52.378;13.404;2023-02-18T11:32:22;7.60;99.90
18880;DHT22;9572;52.378;13.404;2023-02-18T11:34:51;7.60;99.90
18880;DHT22;9572;52.378;13.404;2023-02-18T11:37:19;7.70;99.90
18880;DHT22;9572;52.378;13.404;2023-02-18T11:39:50;7.70;99.90
18880;DHT22;9572;52.378;13.404;2023-02-18T11:42:19;7.70;99.90
18880;DHT22;9572;52.378;13.404;2023-02-18T11:44:50;7.70;99.90
18880;DHT22;9572;52.378;13.404;2023-02-18T11:47:26;7.70;99.90
18880;DHT22;9572;52.378;13.404;2023-02-18T11:50:15;7.70;99.90
18880;DHT22;9572;52.378;13.404;2023-02-18T11:52:46;7.70;99.90
18880;DHT22;9572;52.378;13.404;2023-02-18T11:55:18;7.80;99.90
18880;DHT22;9572;52.378;13.404;2023-02-18T11:57:48;7.80;99.90
18880;DHT22;9572;52.378;13.404;2023-02-18T12:00:22;7.90;99.90
18880;DHT22;9572;52.378;13.404;2023-02-18T12:02:50;8.00;99.90
18880;DHT22;9572;52.378;13.404;2023-02-18T12:05:21;8.10;99.90
18880;DHT22;9572;52.378;13.404;2023-02-18T12:07:50;8.00;99.90
18880;DHT22;9572;52.378;13.404;2023-02-18T12:10:25;8.10;99.90
18880;DHT22;9572;52.378;13.404;2023-02-18T12:12:57;8.20;99.90
18880;DHT22;9572;52.378;13.404;2023-02-18T12:15:33;8.20;99.90
18880;DHT22;9572;52.378;13.404;2023-02-18T12:18:14;8.30;99.90
18880;DHT22;9572;52.378;13.404;2023-02-18T12:21:17;8.40;99.90
18880;DHT22;9572;52.378;13.404;2023-02-18T12:23:57;8.40;99.90
18880;DHT22;9572;52.378;13.404;2023-02-18T12:26:35;8.50;99.90
18880;DHT22;9572;52.378;13.404;2023-02-18T12:29:33;8.60;99.90
18880;DHT22;9572;52.378;13.404;2023-02-18T12:32:14;8.70;99.90
18880;DHT22;9572;52.378;13.404;2023-02-18T12:34:52;8.90;99.90
18880;DHT22;9572;52.378;13.404;2023-02-18T12:37:39;9.00;99.90
18880;DHT22;9572;52.378;13.404;2023-02-18T12:40:34;9.10;99.90
18880;DHT22;9572;52.378;13.404;2023-02-18T12:43:13;9.20;99.90
18880;DHT22;9572;52.378;13.404;2023-02-18T12:48:59;9.40;99.90
18880;DHT22;9572;52.378;13.404;2023-02-18T12:51:42;9.40;99.90
18880;DHT22;9572;52.378;13.404;2023-02-18T12:54:40;9.60;99.90
18880;DHT22;9572;52.378;13.404;2023-02-18T12:57:30;9.70;99.90
18880;DHT22;9572;52.378;13.404;2023-02-18T13:00:20;9.70;99.90
18880;DHT22;9572;52.378;13.404;2023-02-18T13:03:03;9.80;99.90
18880;DHT22;9572;52.378;13.404;2023-02-18T13:05:37;10.00;99.90
18880;DHT22;9572;52.378;13.404;2023-02-18T13:08:21;10.00;99.90
18880;DHT22;9572;52.378;13.404;2023-02-18T13:11:18;10.10;99.90
18880;DHT22;9572;52.378;13.404;2023-02-18T13:13:55;10.20;99.90
18880;DHT22;9572;52.378;13.404;2023-02-18T13:16:27;10.20;99.90
18880;DHT22;9572;52.378;13.404;2023-02-18T13:19:00;10.30;99.90
18880;DHT22;9572;52.378;13.404;2023-02-18T13:21:29;10.30;99.90
18880;DHT22;9572;52.378;13.404;2023-02-18T13:23:58;10.40;99.90
18880;DHT22;9572;52.378;13.404;2023-02-18T13:26:27;10.50;99.90
18880;DHT22;9572;52.378;13.404;2023-02-18T13:29:08;10.50;99.90
18880;DHT22;9572;52.378;13.404;2023-02-18T13:31:45;10.60;99.90
18880;DHT22;9572;52.378;13.404;2023-02-18T13:34:18;10.70;99.90
18880;DHT22;9572;52.378;13.404;2023-02-18T13:36:53;10.70;99.90
18880;DHT22;9572;52.378;13.404;2023-02-18T13:39:23;10.70;99.90
18880;DHT22;9572;52.378;13.404;2023-02-18T13:42:10;10.80;99.90
18880;DHT22;9572;52.378;13.404;2023-02-18T13:45:15;10.80;99.90
18880;DHT22;9572;52.378;13.404;2023-02-18T13:47:50;10.80;99.90
18880;DHT22;9572;52.378;13.404;2023-02-18T13:50:32;10.80;99.90
18880;DHT22;9572;52.378;13.404;2023-02-18T13:53:24;10.70;99.90
18880;DHT22;9572;52.378;13.404;2023-02-18T13:55:57;10.70;99.90
18880;DHT22;9572;52.378;13.404;2023-02-18T13:58:30;10.70;99.90
18880;DHT22;9572;52.378;13.404;2023-02-18T14:01:01;10.60;99.90
18880;DHT22;9572;52.378;13.404;2023-02-18T14:03:38;10.60;99.90
18880;DHT22;9572;52.378;13.404;2023-02-18T14:06:16;10.60;99.90
18880;DHT22;9572;52.378;13.404;2023-02-18T14:08:44;10.60;99.90
18880;DHT22;9572;52.378;13.404;2023-02-18T14:11:37;10.60;99.90
18880;DHT22;9572;52.378;13.404;2023-02-18T14:17:40;10.50;99.90
18880;DHT22;9572;52.378;13.404;2023-02-18T14:20:46;10.50;99.90
18880;DHT22;9572;52.378;13.404;2023-02-18T14:23:40;10.50;99.90
18880;DHT22;9572;52.378;13.404;2023-02-18T14:26:16;10.40;99.90
18880;DHT22;9572;52.378;13.404;2023-02-18T14:28:49;10.40;99.90
18880;DHT22;9572;52.378;13.404;2023-02-18T14:31:29;10.30;99.90
18880;DHT22;9572;52.378;13.404;2023-02-18T14:34:14;10.40;99.90
18880;DHT22;9572;52.378;13.404;2023-02-18T14:36:52;10.40;99.90
18880;DHT22;9572;52.378;13.404;2023-02-18T14:39:32;10.40;99.90
18880;DHT22;9572;52.378;13.404;2023-02-18T14:42:08;10.40;99.90
18880;DHT22;9572;52.378;13.404;2023-02-18T14:44:48;10.40;99.90
18880;DHT22;9572;52.378;13.404;2023-02-18T14:47:27;10.40;99.90
18880;DHT22;9572;52.378;13.404;2023-02-18T14:49:57;10.40;99.90
18880;DHT22;9572;52.378;13.404;2023-02-18T14:52:29;10.30;99.90
18880;DHT22;9572;52.378;13.404;2023-02-18T14:54:59;10.30;99.90
18880;DHT22;9572;52.378;13.404;2023-02-18T14:57:32;10.30;99.90
18880;DHT22;9572;52.378;13.404;2023-02-18T15:00:02;10.30;99.90
18880;DHT22;9572;52.378;13.404;2023-02-18T15:02:35;10.40;99.90
18880;DHT22;9572;52.378;13.404;2023-02-18T15:05:12;10.40;99.90
18880;DHT22;9572;52.378;13.404;2023-02-18T15:07:40;10.40;99.90
18880;DHT22;9572;52.378;13.404;2023-02-18T15:10:13;10.40;99.90
18880;DHT22;9572;52.378;13.404;2023-02-18T15:12:40;10.40;99.90
18880;DHT22;9572;52.378;13.404;2023-02-18T15:15:13;10.40;99.90
18880;DHT22;9572;52.378;13.404;2023-02-18T15:17:45;10.40;99.90
18880;DHT22;9572;52.378;13.404;2023-02-18T15:20:14;10.40;99.90
18880;DHT22;9572;52.378;13.404;2023-02-18T15:22:43;10.40;99.90
18880;DHT22;9572;52.378;13.404;2023-02-18T15:25:11;10.30;99.90
18880;DHT22;9572;52.378;13.404;2023-02-18T15:27:41;10.30;99.90
18880;DHT22;9572;52.378;13.404;2023-02-18T15:30:18;10.30;99.90
18880;DHT22;9572;52.378;13.404;2023-02-18T15:32:50;10.30;99.90
18880;DHT22;9572;52.378;13.404;2023-02-18T15:35:19;10.30;99.90
18880;DHT22;9572;52.378;13.404;2023-02-18T15:37:51;10.30;99.90
18880;DHT22;9572;52.378;13.404;2023-02-18T15:40:19;10.30;99.90
18880;DHT22;9572;52.378;13.404;2023-02-18T15:42:49;10.30;99.90
18880;DHT22;9572;52.378;13.404;2023-02-18T15:45:18;10.30;99.90
18880;DHT22;9572;52.378;13.404;2023-02-18T15:47:48;10.20;99.90
18880;DHT22;9572;52.378;13.404;2023-02-18T15:50:17;10.10;99.90
18880;DHT22;9572;52.378;13.404;2023-02-18T15:52:45;10.10;99.90
18880;DHT22;9572;52.378;13.404;2023-02-18T15:55:21;10.10;99.90
18880;DHT22;9572;52.378;13.404;2023-02-18T15:57:50;10.10;99.90
18880;DHT22;9572;52.378;13.404;2023-02-18T16:00:20;10.10;99.90
18880;DHT22;9572;52.378;13.404;2023-02-18T16:02:54;10.10;99.90
18880;DHT22;9572;52.378;13.404;2023-02-18T16:05:25;10.20;99.90
18880;DHT22;9572;52.378;13.404;2023-02-18T16:07:58;10.20;99.90
18880;DHT22;9572;52.378;13.404;2023-02-18T16:10:42;10.30;99.90
18880;DHT22;9572;52.378;13.404;2023-02-18T16:13:12;10.30;99.90
18880;DHT22;9572;52.378;13.404;2023-02-18T16:15:43;10.30;99.90
18880;DHT22;9572;52.378;13.404;2023-02-18T16:18:25;10.30;99.90
18880;DHT22;9572;52.378;13.404;2023-02-18T16:20:57;10.30;99.90
18880;DHT22;9572;52.378;13.404;2023-02-18T16:23:33;10.20;99.90